Accueil
METAR-TAF:

METAR-TAF

Aéroports :

Portorož, Slovénie

latitude: 45-31N, longitude: 013-34E, altitude: 95 m

Observation

Le bulletin a été fait il y a 25 minutes, à 21:30 UTC
Vent 1 kt de direction variable
Température 24°C
Humidité 89%
Pression 1013 hPa
Visibilité 10 km ou plus

METAR: LJPZ 172130Z AUTO VRB01KT 9999 NSC 24/22 Q1013

Heure: 23:55 (21:55 UTC)

Prévision

Le bulletin a été fait il y a 1 heure et 55 minutes, à 20:00 UTC
Prévision valable du 17 à 21 UTC au 18 à 06 UTC
Vent 5 kt de est/sud-est
Visibilité 10 km ou plus
pas de nuages en-dessous de 1500 mètres et pas de cumulonimbus.

TAF: LJPZ 172000Z 1721/1806 12005KT CAVOK

Observations et prévisions météorologiques de plus de 4000 aéroports (messages METAR et TAF).

Les stations disponibles sont représentées par des disques jaunes et rouges sur la carte.

Passer la souris dessus pour voir le nom de la station.

Cliquer dessus pour voir les observations et prévisions météorologiques.

Pour changer de carte: cliquez sur les boutons verts avec une croix noire pour zoomer, sur le bouton vert avec un tiret pour effectuer un zoom arrière, ou sur les flèches vertes pour les cartes adjacentes.


METAR-TAF: